Time;durP1;ratioP1;P1;durP2;ratioP2;P2;SDS_P1;SDS_P2;PMS_P1;PMS_P2;Temp;Humidity;BMP_temperature;BMP_pressure;BME280_temperature;BME280_humidity;BME280_pressure;Samples;Min_cycle;Max_cycle;Signal;HPM_P1;HPM_P2
2022/05/30 00:00:33;;;;;;;2.33;2.07;;;;;;;11.61;98.05;100621.91;5063539;28;20308;-51
2022/05/30 00:03:00;;;;;;;1.67;1.58;;;;;;;11.56;98.43;100613.19;5051911;28;20227;-51
2022/05/30 00:05:29;;;;;;;3.05;2.47;;;;;;;11.54;98.87;100605.28;5059355;28;20231;-51
2022/05/30 00:07:55;;;;;;;5.47;1.95;;;;;;;11.51;99.13;100605.31;5059367;28;20933;-53
2022/05/30 00:10:22;;;;;;;2.67;1.97;;;;;;;11.49;99.34;100607.09;5058549;28;20710;-53
2022/05/30 00:12:50;;;;;;;1.60;1.50;;;;;;;11.48;99.17;100605.38;5054871;28;20697;-52
2022/05/30 00:15:20;;;;;;;3.30;2.30;;;;;;;11.44;99.45;100609.78;5066008;28;20874;-51
2022/05/30 00:17:46;;;;;;;3.42;1.83;;;;;;;11.43;99.23;100612.38;5058162;28;20791;-50
2022/05/30 00:20:13;;;;;;;2.28;1.60;;;;;;;11.39;99.37;100608.91;5054065;28;20244;-51
2022/05/30 00:22:39;;;;;;;2.30;1.60;;;;;;;11.35;99.52;100609.81;5066287;28;20231;-53
2022/05/30 00:25:07;;;;;;;1.80;1.70;;;;;;;11.31;99.76;100608.09;5046848;28;20286;-51
2022/05/30 00:27:33;;;;;;;1.53;1.43;;;;;;;11.29;100.00;100617.72;5055530;28;20232;-53
2022/05/30 00:30:01;;;;;;;1.83;1.70;;;;;;;11.27;99.98;100615.97;5056302;28;20223;-51
2022/05/30 00:32:27;;;;;;;1.50;1.40;;;;;;;11.22;100.00;100621.28;5058551;28;20240;-52
2022/05/30 00:34:53;;;;;;;1.77;1.67;;;;;;;11.20;100.00;100615.19;5064264;28;20239;-54
2022/05/30 00:37:20;;;;;;;1.77;1.50;;;;;;;11.15;100.00;100624.81;5051910;28;20297;-53
2022/05/30 00:39:46;;;;;;;2.05;1.95;;;;;;;11.13;100.00;100623.97;5055730;28;20231;-51
2022/05/30 00:42:15;;;;;;;2.10;1.50;;;;;;;11.14;100.00;100621.31;5058250;28;20231;-52
2022/05/30 00:44:42;;;;;;;3.37;2.27;;;;;;;11.13;100.00;100630.09;5056235;28;20240;-52
2022/05/30 00:47:10;;;;;;;2.83;1.92;;;;;;;11.14;100.00;100626.56;5046993;28;20228;-52
2022/05/30 00:49:38;;;;;;;2.97;2.07;;;;;;;11.16;100.00;100629.19;5054726;28;20296;-53
2022/05/30 00:52:07;;;;;;;2.47;1.77;;;;;;;11.15;100.00;100628.31;5055927;28;20230;-52
2022/05/30 00:54:36;;;;;;;1.75;1.65;;;;;;;11.17;100.00;100633.59;5056075;28;20242;-52
2022/05/30 00:57:20;;;;;;;2.63;1.87;;;;;;;11.20;100.00;100628.31;5049807;28;20235;-52
2022/05/30 00:59:47;;;;;;;1.80;1.70;;;;;;;11.19;100.00;100629.16;5047387;28;20228;-52
2022/05/30 01:02:14;;;;;;;1.60;1.50;;;;;;;11.19;100.00;100629.16;5058095;28;20235;-52
2022/05/30 01:07:25;;;;;;;1.90;1.53;;;;;;;11.18;100.00;100633.56;5053332;28;20246;-53
2022/05/30 01:09:54;;;;;;;1.73;1.63;;;;;;;11.19;100.00;100631.78;5059199;28;20721;-52
2022/05/30 01:12:35;;;;;;;2.17;2.00;;;;;;;11.24;100.00;100630.03;5057361;28;20605;-52
2022/05/30 01:15:01;;;;;;;1.97;1.87;;;;;;;11.23;100.00;100625.63;5058773;28;20231;-51
2022/05/30 01:17:29;;;;;;;1.77;1.52;;;;;;;11.30;100.00;100626.47;5064709;28;20243;-52
2022/05/30 01:19:58;;;;;;;2.17;2.03;;;;;;;11.26;100.00;100625.63;5054612;28;20247;-52
2022/05/30 01:22:46;;;;;;;2.47;2.27;;;;;;;11.30;100.00;100626.47;5052868;28;20239;-53
2022/05/30 01:25:25;;;;;;;4.03;2.30;;;;;;;11.28;100.00;100626.50;5054332;28;20323;-51
2022/05/30 01:27:58;;;;;;;2.17;1.97;;;;;;;11.28;100.00;100621.25;5058113;28;20234;-51
2022/05/30 01:30:26;;;;;;;2.80;2.60;;;;;;;11.12;100.00;100622.19;5052702;28;20240;-51
2022/05/30 01:32:58;;;;;;;2.45;1.90;;;;;;;11.09;100.00;100623.13;5054612;28;20242;-53
2022/05/30 01:35:27;;;;;;;2.27;1.90;;;;;;;11.10;100.00;100623.97;5059552;28;20701;-53
2022/05/30 01:37:53;;;;;;;2.93;2.63;;;;;;;11.03;100.00;100622.28;5058930;28;20248;-51
2022/05/30 01:40:20;;;;;;;2.40;2.03;;;;;;;11.01;100.00;100618.75;5052800;28;20301;-52
2022/05/30 01:42:46;;;;;;;3.83;2.57;;;;;;;11.06;100.00;100622.25;5052618;28;20703;-51
2022/05/30 01:45:12;;;;;;;2.40;2.20;;;;;;;11.06;100.00;100627.50;5060426;28;20370;-53
2022/05/30 01:47:40;;;;;;;3.27;2.13;;;;;;;11.11;100.00;100630.97;5058610;28;20227;-51
2022/05/30 01:50:07;;;;;;;4.77;2.60;;;;;;;11.07;100.00;100624.00;5052498;28;20239;-52
2022/05/30 01:52:33;;;;;;;3.13;2.30;;;;;;;11.06;100.00;100627.50;5052236;28;20776;-52
2022/05/30 01:55:00;;;;;;;2.63;2.43;;;;;;;11.02;100.00;100620.50;5055057;28;20645;-54
2022/05/30 01:57:26;;;;;;;3.00;2.13;;;;;;;11.02;100.00;100620.50;5055340;28;20655;-52
2022/05/30 01:59:53;;;;;;;4.70;2.70;;;;;;;11.07;100.00;100624.00;5060549;28;20238;-51
2022/05/30 02:02:20;;;;;;;4.70;3.17;;;;;;;11.09;100.00;100623.13;5053803;28;20238;-52
2022/05/30 02:04:47;;;;;;;3.07;2.50;;;;;;;11.08;100.00;100620.47;5062117;28;20277;-53
2022/05/30 02:07:14;;;;;;;2.60;2.40;;;;;;;11.02;100.00;100617.88;5052208;28;20263;-52
2022/05/30 02:09:40;;;;;;;2.80;2.50;;;;;;;10.96;100.00;100614.41;5062045;28;20464;-52
2022/05/30 02:12:07;;;;;;;6.13;3.10;;;;;;;10.96;100.00;100616.16;5060797;28;20231;-53
2022/05/30 02:14:34;;;;;;;2.73;2.53;;;;;;;10.92;100.00;100615.31;5047769;28;20798;-52
2022/05/30 02:17:04;;;;;;;3.27;2.97;;;;;;;10.89;100.00;100615.31;5059920;28;20748;-50
2022/05/30 02:19:32;;;;;;;2.93;2.63;;;;;;;10.91;100.00;100617.91;5054363;28;20326;-53
2022/05/30 02:22:01;;;;;;;2.70;2.47;;;;;;;10.89;100.00;100612.69;5054798;28;20239;-50
2022/05/30 02:24:27;;;;;;;2.97;2.77;;;;;;;10.85;100.00;100616.22;5058149;28;20239;-52
2022/05/30 02:26:54;;;;;;;7.33;2.93;;;;;;;10.80;100.00;100617.97;5055901;28;20246;-51
2022/05/30 02:29:21;;;;;;;4.67;2.60;;;;;;;10.75;100.00;100618.00;5057047;28;20234;-51
2022/05/30 02:31:47;;;;;;;3.03;2.73;;;;;;;10.75;100.00;100615.38;5054398;28;20235;-52
2022/05/30 02:37:05;;;;;;;4.53;2.70;;;;;;;10.60;100.00;100622.41;4981404;28;20247;-51
2022/05/30 02:39:32;;;;;;;4.20;2.90;;;;;;;10.70;100.00;100613.63;5050822;28;20293;-52
2022/05/30 02:41:58;;;;;;;3.47;3.10;;;;;;;10.62;100.00;100610.16;5059785;28;20231;-51
2022/05/30 02:44:26;;;;;;;2.70;2.50;;;;;;;10.56;100.00;100615.41;5048922;28;20243;-52
2022/05/30 02:46:54;;;;;;;3.13;2.83;;;;;;;10.57;100.00;100612.81;5059881;28;20649;-51
2022/05/30 02:49:21;;;;;;;4.83;3.70;;;;;;;10.62;100.00;100621.53;5058381;28;20311;-52
2022/05/30 02:51:48;;;;;;;3.27;3.07;;;;;;;10.58;100.00;100622.44;5049040;28;20666;-54
2022/05/30 02:54:16;;;;;;;3.43;3.13;;;;;;;10.51;100.00;100618.94;5056758;28;20240;-53
2022/05/30 02:56:43;;;;;;;3.20;2.90;;;;;;;10.51;100.00;100618.06;5060643;28;20318;-54
2022/05/30 02:59:09;;;;;;;5.33;3.23;;;;;;;10.51;100.00;100618.94;5060613;28;20235;-53
2022/05/30 03:01:36;;;;;;;3.20;3.00;;;;;;;10.52;100.00;100625.06;5047892;28;20297;-52
2022/05/30 03:04:04;;;;;;;5.00;4.03;;;;;;;10.56;100.00;100631.16;5061238;28;20305;-53
2022/05/30 03:06:31;;;;;;;4.43;3.47;;;;;;;10.57;100.00;100627.69;5056190;28;20239;-51
2022/05/30 03:08:57;;;;;;;4.70;3.70;;;;;;;10.61;100.00;100634.69;5053005;28;20258;-52
2022/05/30 03:11:25;;;;;;;5.97;3.67;;;;;;;10.56;100.00;100631.16;5059826;28;20233;-53
2022/05/30 03:13:52;;;;;;;4.53;3.60;;;;;;;10.54;100.00;100632.94;5059279;28;20235;-51
2022/05/30 03:16:18;;;;;;;4.37;3.97;;;;;;;10.45;100.00;100639.94;5056519;28;20264;-54
2022/05/30 03:18:45;;;;;;;4.57;2.70;;;;;;;10.44;100.00;100632.09;5055631;28;20236;-53
2022/05/30 03:21:11;;;;;;;3.40;3.10;;;;;;;10.37;100.00;100636.47;5064517;28;20290;-52
2022/05/30 03:23:38;;;;;;;4.23;3.83;;;;;;;10.28;100.00;100639.09;5060315;28;20274;-52
2022/05/30 03:26:05;;;;;;;3.70;3.40;;;;;;;10.18;100.00;100642.56;5052766;28;20318;-52
2022/05/30 03:28:33;;;;;;;5.40;3.90;;;;;;;10.12;100.00;100638.22;5058123;28;20305;-52
2022/05/30 03:31:01;;;;;;;4.00;3.60;;;;;;;10.10;100.00;100641.72;5057532;28;20232;-52
2022/05/30 03:33:28;;;;;;;4.10;3.80;;;;;;;9.99;100.00;100645.22;5063076;28;20288;-52
2022/05/30 03:35:54;;;;;;;6.67;4.60;;;;;;;9.95;100.00;100645.22;5060520;28;20697;-52
2022/05/30 03:38:22;;;;;;;5.20;4.70;;;;;;;9.85;100.00;100646.09;5052406;28;20231;-52
2022/05/30 03:40:48;;;;;;;5.10;4.13;;;;;;;9.80;100.00;100639.09;5058667;28;20227;-54
2022/05/30 03:43:14;;;;;;;7.03;4.37;;;;;;;9.80;100.00;100638.22;5064003;28;20250;-53
2022/05/30 03:45:44;;;;;;;5.80;4.70;;;;;;;9.79;100.00;100639.06;5048543;28;20228;-54
2022/05/30 03:48:14;;;;;;;6.10;4.70;;;;;;;9.86;100.00;100638.22;5061668;28;20328;-54
2022/05/30 03:50:41;;;;;;;5.63;5.13;;;;;;;9.85;100.00;100636.47;5054123;28;20232;-53
2022/05/30 03:53:08;;;;;;;11.30;6.90;;;;;;;9.89;100.00;100632.97;5062516;28;20431;-53
2022/05/30 03:55:36;;;;;;;8.83;7.10;;;;;;;9.95;100.00;100634.72;5058172;28;20650;-53
2022/05/30 03:58:03;;;;;;;10.73;6.33;;;;;;;9.81;100.00;100645.22;5056264;28;20464;-53
2022/05/30 04:00:29;;;;;;;11.43;7.77;;;;;;;9.79;100.00;100642.59;5052623;28;20243;-53
2022/05/30 04:02:57;;;;;;;9.47;6.87;;;;;;;9.80;100.00;100632.97;5057276;28;20227;-53
2022/05/30 04:05:23;;;;;;;9.17;6.93;;;;;;;9.77;100.00;100638.22;5064552;28;20255;-52
2022/05/30 04:07:50;;;;;;;9.90;6.87;;;;;;;9.70;100.00;100633.84;5061621;28;20255;-52
2022/05/30 04:10:16;;;;;;;8.00;6.37;;;;;;;9.64;100.00;100636.47;5053761;28;20247;-53
2022/05/30 04:12:43;;;;;;;10.47;7.97;;;;;;;9.66;100.00;100645.22;5060396;28;20292;-52
2022/05/30 04:15:13;;;;;;;9.60;6.73;;;;;;;9.68;100.00;100644.31;5058959;28;20231;-53
2022/05/30 04:17:40;;;;;;;6.93;6.23;;;;;;;9.68;100.00;100644.31;5057366;28;20242;-52
2022/05/30 04:20:09;;;;;;;15.63;6.93;;;;;;;9.69;100.00;100645.22;5058463;28;20232;-53
2022/05/30 04:22:35;;;;;;;9.77;6.50;;;;;;;9.66;100.00;100646.06;5063424;28;20239;-53
2022/05/30 04:25:02;;;;;;;9.30;6.37;;;;;;;9.67;100.00;100647.81;5057900;28;20256;-53
2022/05/30 04:27:28;;;;;;;13.03;6.93;;;;;;;9.68;100.00;100654.81;5059740;28;20247;-52
2022/05/30 04:29:55;;;;;;;7.50;6.27;;;;;;;9.62;100.00;100653.91;5061598;28;20309;-53
2022/05/30 04:32:22;;;;;;;11.03;5.77;;;;;;;9.60;100.00;100658.28;5048755;28;20325;-52
2022/05/30 04:34:49;;;;;;;9.17;5.80;;;;;;;9.64;100.00;100663.53;5053566;28;20231;-52
2022/05/30 04:37:16;;;;;;;6.50;4.80;;;;;;;9.61;100.00;100660.03;5054936;28;20293;-52
2022/05/30 04:39:43;;;;;;;10.30;6.30;;;;;;;9.51;100.00;100657.41;5062107;28;20239;-52
2022/05/30 04:42:10;;;;;;;6.20;5.57;;;;;;;9.47;100.00;100663.50;5052453;28;20240;-53
2022/05/30 04:44:36;;;;;;;10.13;5.93;;;;;;;9.56;100.00;100660.03;5059393;28;20235;-52
2022/05/30 04:47:03;;;;;;;8.67;6.60;;;;;;;9.56;100.00;100660.91;5057604;28;20368;-53
2022/05/30 04:49:30;;;;;;;10.63;7.23;;;;;;;9.56;100.00;100666.16;5058193;28;20721;-53
2022/05/30 04:51:56;;;;;;;8.37;6.37;;;;;;;9.45;100.00;100653.91;5065278;28;20247;-52
2022/05/30 04:54:25;;;;;;;12.83;6.50;;;;;;;9.50;100.00;100658.28;5054685;28;20227;-52
2022/05/30 04:56:51;;;;;;;11.43;6.73;;;;;;;9.52;100.00;100658.28;5056229;28;20232;-53
2022/05/30 04:59:18;;;;;;;7.20;5.57;;;;;;;9.53;100.00;100660.03;5054124;28;20236;-52
2022/05/30 05:01:44;;;;;;;10.43;6.30;;;;;;;9.57;100.00;100661.78;5056946;28;20273;-53
2022/05/30 05:04:11;;;;;;;12.20;6.10;;;;;;;9.56;100.00;100660.03;5060484;28;20243;-52
2022/05/30 05:06:38;;;;;;;9.37;5.97;;;;;;;9.44;100.00;100663.53;5053837;28;20263;-51
2022/05/30 05:09:25;;;;;;;7.37;6.07;;;;;;;9.47;100.00;100671.34;5051022;28;20234;-53
2022/05/30 05:11:53;;;;;;;12.43;6.27;;;;;;;9.56;100.00;100674.00;5055927;28;20223;-52
2022/05/30 05:14:19;;;;;;;8.17;4.77;;;;;;;9.59;100.00;100669.66;5052479;28;20293;-53
2022/05/30 05:16:46;;;;;;;9.70;5.47;;;;;;;9.53;100.00;100670.50;5052972;28;20751;-52
2022/05/30 05:19:13;;;;;;;6.73;5.50;;;;;;;9.53;100.00;100671.38;5046347;28;20289;-52
2022/05/30 05:21:41;;;;;;;8.67;5.47;;;;;;;9.60;100.00;100681.88;5056781;28;20678;-51
2022/05/30 05:24:08;;;;;;;8.43;5.43;;;;;;;9.56;100.00;100681.88;5056299;28;20223;-52
2022/05/30 05:26:35;;;;;;;8.97;5.80;;;;;;;9.65;100.00;100685.38;5055231;28;20236;-52
2022/05/30 05:29:03;;;;;;;8.83;5.63;;;;;;;9.80;100.00;100681.06;5052607;28;20259;-52
2022/05/30 05:31:32;;;;;;;9.80;5.87;;;;;;;9.80;100.00;100680.19;5058341;28;20653;-52
2022/05/30 05:33:58;;;;;;;9.57;5.83;;;;;;;9.74;100.00;100690.66;5054263;28;20302;-51
2022/05/30 05:36:26;;;;;;;10.33;5.83;;;;;;;9.75;100.00;100685.41;5051966;28;20262;-53
2022/05/30 05:38:53;;;;;;;6.60;5.27;;;;;;;9.68;100.00;100685.38;5052135;28;20259;-53
2022/05/30 05:41:21;;;;;;;13.17;6.93;;;;;;;9.82;100.00;100686.28;5061112;28;20239;-53
2022/05/30 05:43:47;;;;;;;10.87;7.17;;;;;;;9.87;100.00;100691.56;5054902;28;20242;-53
2022/05/30 05:46:16;;;;;;;10.80;5.47;;;;;;;9.85;100.00;100688.03;5062283;28;20235;-54
2022/05/30 05:48:42;;;;;;;6.50;4.77;;;;;;;9.82;100.00;100683.66;5055990;28;20242;-51
2022/05/30 05:51:09;;;;;;;11.27;5.27;;;;;;;9.73;100.00;100687.16;5055325;28;20235;-51
2022/05/30 05:53:36;;;;;;;10.57;4.63;;;;;;;9.87;100.00;100687.19;5064341;28;20268;-53
2022/05/30 05:56:10;;;;;;;9.10;5.73;;;;;;;9.93;100.00;100691.53;5055734;28;20277;-53
2022/05/30 05:58:36;;;;;;;7.97;4.97;;;;;;;9.92;100.00;100695.03;5058615;28;20243;-53
2022/05/30 06:01:07;;;;;;;6.90;4.70;;;;;;;9.84;100.00;100691.56;5058960;28;20232;-53
2022/05/30 06:03:34;;;;;;;9.77;5.60;;;;;;;9.82;100.00;100694.16;5047491;28;20242;-51
2022/05/30 06:06:01;;;;;;;8.00;4.70;;;;;;;9.70;100.00;100702.00;5058991;28;20223;-51
2022/05/30 06:08:27;;;;;;;10.93;5.03;;;;;;;9.54;100.00;100701.94;5057983;28;20236;-54
2022/05/30 06:11:12;;;;;;;13.47;5.83;;;;;;;9.57;100.00;100704.59;5055183;28;20227;-52
2022/05/30 06:13:40;;;;;;;4.93;4.40;;;;;;;9.59;100.00;100706.38;5052547;28;20236;-52
2022/05/30 06:16:08;;;;;;;6.10;5.00;;;;;;;9.57;100.00;100708.97;5056000;28;20714;-51
2022/05/30 06:18:35;;;;;;;11.40;5.30;;;;;;;9.56;100.00;100702.84;5049857;28;20239;-51
2022/05/30 06:21:03;;;;;;;7.90;5.07;;;;;;;9.60;100.00;100714.22;5059346;28;20223;-52
2022/05/30 06:23:29;;;;;;;8.73;4.13;;;;;;;9.63;100.00;100710.72;5051721;28;20316;-52
2022/05/30 06:25:56;;;;;;;10.00;4.30;;;;;;;9.65;100.00;100707.25;5059745;28;20231;-51
2022/05/30 06:28:22;;;;;;;13.23;5.83;;;;;;;9.68;100.00;100712.47;5057183;28;20710;-52
2022/05/30 06:30:49;;;;;;;6.27;4.77;;;;;;;9.61;100.00;100710.72;5048442;28;20238;-52
2022/05/30 06:33:15;;;;;;;9.07;4.97;;;;;;;9.61;100.00;100709.84;5054319;28;20395;-52
2022/05/30 06:35:44;;;;;;;9.93;5.03;;;;;;;9.57;100.00;100715.06;5061730;28;20227;-51
2022/05/30 06:38:12;;;;;;;7.17;4.80;;;;;;;9.51;100.00;100714.19;5058895;28;20271;-52
2022/05/30 06:40:39;;;;;;;6.93;4.37;;;;;;;9.50;100.00;100717.69;5048781;28;20251;-52
2022/05/30 06:43:06;;;;;;;6.73;4.63;;;;;;;9.59;100.00;100722.97;5056614;28;20318;-50
2022/05/30 06:45:33;;;;;;;8.17;5.17;;;;;;;9.67;100.00;100721.22;5052436;28;20243;-52
2022/05/30 06:48:00;;;;;;;5.10;4.17;;;;;;;9.70;100.00;100717.75;5046015;28;20228;-50
2022/05/30 06:50:26;;;;;;;7.50;4.67;;;;;;;9.73;100.00;100717.75;5052464;28;20247;-52
2022/05/30 06:52:54;;;;;;;7.90;4.97;;;;;;;9.76;100.00;100720.38;5060153;28;20231;-51
2022/05/30 06:55:21;;;;;;;7.40;4.57;;;;;;;9.84;100.00;100718.63;5048099;28;20239;-52
2022/05/30 07:00:32;;;;;;;7.47;4.53;;;;;;;9.80;100.00;100722.13;5054153;28;20239;-51
2022/05/30 07:03:00;;;;;;;7.10;4.23;;;;;;;9.84;100.00;100721.25;5062515;28;20257;-52
2022/05/30 07:05:26;;;;;;;10.23;4.07;;;;;;;9.85;100.00;100730.00;5068443;28;20312;-53
2022/05/30 07:07:56;;;;;;;8.07;3.77;;;;;;;9.93;100.00;100723.91;5066888;28;20233;-51
2022/05/30 07:10:22;;;;;;;5.40;4.40;;;;;;;9.99;100.00;100726.53;5066459;28;20263;-50
2022/05/30 07:12:49;;;;;;;8.67;5.13;;;;;;;10.12;100.00;100730.03;5063764;28;20292;-54
2022/05/30 07:15:15;;;;;;;6.40;4.53;;;;;;;10.27;100.00;100724.81;5060717;28;20742;-51
2022/05/30 07:17:42;;;;;;;6.67;4.77;;;;;;;10.31;100.00;100735.31;5062576;28;20234;-52
2022/05/30 07:20:09;;;;;;;10.17;4.93;;;;;;;10.28;100.00;100733.56;5056573;28;20488;-52
2022/05/30 07:22:36;;;;;;;8.80;3.83;;;;;;;10.50;100.00;100732.69;5061240;28;20223;-52
2022/05/30 07:25:04;;;;;;;5.67;4.43;;;;;;;10.51;100.00;100731.81;5051532;28;20911;-51
2022/05/30 07:27:30;;;;;;;5.03;4.07;;;;;;;10.49;100.00;100736.22;5065134;28;20227;-52
2022/05/30 07:29:57;;;;;;;9.70;4.80;;;;;;;10.52;100.00;100735.31;5060866;28;20636;-51
2022/05/30 07:32:24;;;;;;;9.23;4.20;;;;;;;10.50;100.00;100732.69;5060201;28;20239;-52
2022/05/30 07:34:50;;;;;;;7.83;4.37;;;;;;;10.58;100.00;100734.44;5061056;28;20223;-51
2022/05/30 07:37:17;;;;;;;3.77;3.43;;;;;;;10.54;100.00;100737.94;5061796;28;20536;-53
2022/05/30 07:39:43;;;;;;;8.03;4.47;;;;;;;10.56;100.00;100736.19;5056233;28;20261;-51
2022/05/30 07:42:13;;;;;;;8.50;3.73;;;;;;;10.59;100.00;100741.44;5060684;28;20235;-51
2022/05/30 07:44:40;;;;;;;8.33;4.47;;;;;;;10.64;100.00;100734.44;5056512;28;20608;-52
2022/05/30 07:47:07;;;;;;;7.17;4.07;;;;;;;10.65;100.00;100742.31;5061842;28;20658;-52
2022/05/30 07:49:33;;;;;;;8.70;4.20;;;;;;;10.62;100.00;100746.69;5055174;28;20242;-52
2022/05/30 07:52:00;;;;;;;12.80;3.80;;;;;;;10.57;100.00;100745.84;5055013;28;20227;-51
2022/05/30 07:54:26;;;;;;;7.33;3.90;;;;;;;10.56;100.00;100749.31;5057038;28;20843;-51
2022/05/30 07:56:53;;;;;;;5.93;4.17;;;;;;;10.61;100.00;100756.31;5062072;28;20231;-53
2022/05/30 07:59:21;;;;;;;6.40;4.17;;;;;;;10.72;100.00;100756.31;5060709;28;20240;-52
2022/05/30 08:01:47;;;;;;;6.50;3.67;;;;;;;10.71;100.00;100758.06;5059995;28;20227;-51
2022/05/30 08:04:15;;;;;;;4.77;3.53;;;;;;;10.73;100.00;100763.28;5050912;28;20232;-52
2022/05/30 08:06:42;;;;;;;7.83;4.50;;;;;;;10.83;100.00;100761.53;5053904;28;20518;-51
2022/05/30 08:09:08;;;;;;;5.53;3.53;;;;;;;10.90;100.00;100764.16;5060428;28;20251;-50
2022/05/30 08:11:35;;;;;;;8.03;4.07;;;;;;;10.93;100.00;100764.16;5057889;28;20312;-52
2022/05/30 08:14:01;;;;;;;10.37;4.33;;;;;;;11.03;100.00;100769.38;5051315;28;20224;-52
2022/05/30 08:16:29;;;;;;;6.83;3.83;;;;;;;11.18;100.00;100771.97;5056229;28;20305;-53
2022/05/30 08:18:56;;;;;;;6.13;4.10;;;;;;;11.28;100.00;100775.44;5057288;28;20262;-51
2022/05/30 08:21:22;;;;;;;6.60;4.00;;;;;;;11.34;100.00;100767.56;5058114;28;20235;-51
2022/05/30 08:23:49;;;;;;;9.67;4.40;;;;;;;11.31;100.00;100772.81;5054076;28;20252;-53
2022/05/30 08:26:15;;;;;;;5.70;3.50;;;;;;;11.44;100.00;100772.75;5065431;28;20472;-51
2022/05/30 08:28:41;;;;;;;7.88;4.88;;;;;;;11.76;99.12;100782.25;5059317;28;20231;-51
2022/05/30 08:31:08;;;;;;;5.63;3.88;;;;;;;11.97;96.32;100776.03;5046680;28;20740;-53
2022/05/30 08:33:36;;;;;;;3.88;3.53;;;;;;;12.11;94.33;100786.44;5057729;28;20597;-52
2022/05/30 08:36:06;;;;;;;5.07;3.22;;;;;;;12.01;95.22;100785.66;5062447;28;20251;-52
2022/05/30 08:38:34;;;;;;;9.48;4.40;;;;;;;12.00;95.10;100780.38;5055627;28;20236;-52
2022/05/30 08:43:48;;;;;;;6.83;3.80;;;;;;;12.65;94.01;100786.94;5053908;28;20432;-52
2022/05/30 08:46:26;;;;;;;4.65;3.40;;;;;;;12.76;92.36;100779.81;5062721;28;20261;-52
2022/05/30 08:49:04;;;;;;;5.38;2.92;;;;;;;13.01;87.27;100787.47;5057224;28;20670;-52
2022/05/30 08:51:44;;;;;;;3.83;2.63;;;;;;;13.22;86.28;100787.25;5053666;28;20514;-51
2022/05/30 08:54:21;;;;;;;2.53;2.33;;;;;;;13.17;83.19;100791.72;5059296;28;20242;-51
2022/05/30 08:56:49;;;;;;;7.55;2.63;;;;;;;13.30;82.53;100790.72;5052513;28;20232;-52
2022/05/30 08:59:26;;;;;;;6.20;3.20;;;;;;;13.38;79.71;100790.63;5051176;28;20771;-51
2022/05/30 09:01:55;;;;;;;7.32;2.70;;;;;;;13.40;80.42;100780.06;5055020;28;20242;-51
2022/05/30 09:04:28;;;;;;;4.57;2.50;;;;;;;13.30;81.65;100784.56;5052079;28;20294;-53
2022/05/30 09:06:58;;;;;;;7.07;2.50;;;;;;;13.32;79.49;100788.91;5052931;28;20231;-53
2022/05/30 09:09:29;;;;;;;4.65;2.47;;;;;;;13.20;81.68;100791.69;5058427;28;20317;-51
2022/05/30 09:11:59;;;;;;;4.40;2.55;;;;;;;13.32;81.29;100791.56;5055022;28;20296;-51
2022/05/30 09:14:33;;;;;;;3.80;2.83;;;;;;;13.61;79.71;100785.94;5052079;28;20309;-51
2022/05/30 09:17:02;;;;;;;3.42;2.65;;;;;;;13.94;77.20;100791.66;5057003;28;20234;-51
2022/05/30 09:19:30;;;;;;;2.45;1.92;;;;;;;14.14;74.48;100790.50;5047182;28;20244;-51
2022/05/30 09:22:01;;;;;;;3.35;1.70;;;;;;;14.49;71.00;100787.31;5054222;28;20235;-53
2022/05/30 09:24:28;;;;;;;5.05;2.40;;;;;;;14.70;72.14;100786.97;5057777;28;20226;-52
2022/05/30 09:26:57;;;;;;;1.77;1.67;;;;;;;15.00;67.69;100780.28;5047992;28;20242;-54
2022/05/30 09:29:27;;;;;;;3.80;2.15;;;;;;;15.21;68.54;100779.00;5051416;28;20406;-52
2022/05/30 09:32:01;;;;;;;4.82;2.50;;;;;;;15.35;68.84;100778.75;5060809;28;20231;-54
2022/05/30 09:34:37;;;;;;;3.92;1.73;;;;;;;15.45;66.58;100777.66;5056575;28;20227;-51
2022/05/30 09:37:04;;;;;;;1.75;1.63;;;;;;;15.49;64.92;100775.81;5050182;28;20219;-51
2022/05/30 09:39:42;;;;;;;3.28;1.80;;;;;;;15.10;66.12;100778.34;5052067;28;20267;-52
2022/05/30 09:42:22;;;;;;;3.55;1.70;;;;;;;14.74;67.46;100775.47;5059745;28;20237;-52
2022/05/30 09:44:51;;;;;;;3.80;1.80;;;;;;;14.45;68.02;100780.34;5052095;28;20295;-51
2022/05/30 09:47:19;;;;;;;4.10;1.90;;;;;;;14.06;70.58;100773.00;5059324;28;20293;-52
2022/05/30 09:49:49;;;;;;;2.72;1.85;;;;;;;14.18;71.23;100774.59;5050509;28;20232;-51
2022/05/30 09:52:37;;;;;;;8.35;3.63;;;;;;;14.29;72.35;100771.78;5057419;28;20230;-51
2022/05/30 09:55:25;;;;;;;5.20;2.28;;;;;;;14.29;73.18;100767.38;5048933;28;20417;-52
2022/05/30 09:57:52;;;;;;;1.58;1.30;;;;;;;14.38;72.45;100770.75;5057592;28;20284;-51
2022/05/30 10:00:21;;;;;;;5.07;1.85;;;;;;;14.64;63.95;100765.09;5051187;28;20249;-53
2022/05/30 10:02:59;;;;;;;2.58;1.20;;;;;;;14.92;61.98;100765.47;5055848;28;20761;-52
2022/05/30 10:05:29;;;;;;;2.83;1.40;;;;;;;15.32;60.67;100772.63;5050200;28;20816;-52
2022/05/30 10:07:57;;;;;;;3.40;1.52;;;;;;;15.54;61.49;100760.69;5050416;28;20791;-52
2022/05/30 10:10:25;;;;;;;6.13;1.50;;;;;;;15.34;62.48;100769.06;5048221;28;21138;-53
2022/05/30 10:12:56;;;;;;;2.70;1.02;;;;;;;15.19;60.46;100770.22;5056844;28;20277;-51
2022/05/30 10:15:27;;;;;;;1.10;1.00;;;;;;;14.75;59.86;100769.28;5048474;28;20239;-51
2022/05/30 10:17:56;;;;;;;4.40;1.40;;;;;;;14.52;60.84;100764.38;5052046;28;20266;-53
2022/05/30 10:20:26;;;;;;;2.08;1.45;;;;;;;14.73;59.88;100770.22;5052483;28;20232;-52
2022/05/30 10:28:50;;;;;;;3.67;1.33;;;;;;;14.73;57.07;100765.78;4991682;28;20346;-51
2022/05/30 10:31:32;;;;;;;2.55;1.17;;;;;;;14.46;58.31;100771.50;5051381;28;20262;-52
2022/05/30 10:34:14;;;;;;;2.45;1.35;;;;;;;14.41;56.86;100783.94;5054801;28;20421;-50
2022/05/30 10:36:54;;;;;;;0.98;0.65;;;;;;;14.15;58.30;100774.66;5052873;28;20247;-51
2022/05/30 10:39:35;;;;;;;1.30;1.20;;;;;;;14.10;60.15;100773.81;5059525;28;21017;-52
2022/05/30 10:42:05;;;;;;;1.95;1.13;;;;;;;14.55;59.74;100771.41;5054660;28;20235;-52
2022/05/30 10:44:34;;;;;;;3.72;1.67;;;;;;;15.38;58.69;100769.88;5053095;28;20238;-53
2022/05/30 10:47:04;;;;;;;2.33;1.23;;;;;;;15.83;56.82;100769.81;5062198;28;20252;-52
2022/05/30 10:49:33;;;;;;;3.58;2.13;;;;;;;16.13;53.88;100776.22;5056492;28;20501;-51
2022/05/30 10:52:03;;;;;;;3.42;1.48;;;;;;;16.55;52.71;100773.44;5063099;28;20219;-52
2022/05/30 10:54:34;;;;;;;6.18;1.20;;;;;;;16.99;52.01;100772.31;5064979;28;20239;-52
2022/05/30 10:57:10;;;;;;;1.05;0.77;;;;;;;17.00;51.97;100768.75;5059311;28;20240;-52
2022/05/30 10:59:40;;;;;;;2.50;1.30;;;;;;;17.13;50.20;100770.16;5062821;28;20234;-52
2022/05/30 11:02:12;;;;;;;4.15;1.60;;;;;;;17.53;48.10;100771.69;5056207;28;20330;-52
2022/05/30 11:04:44;;;;;;;3.97;0.95;;;;;;;17.82;49.10;100777.94;5066418;28;20284;-51
2022/05/30 11:07:24;;;;;;;1.25;0.93;;;;;;;17.93;44.20;100781.13;5070503;28;20238;-51
2022/05/30 11:09:57;;;;;;;3.42;0.95;;;;;;;17.84;45.86;100786.75;5070091;28;20236;-52
2022/05/30 11:12:28;;;;;;;2.72;1.20;;;;;;;17.85;46.18;100781.38;5063350;28;20224;-53
2022/05/30 11:15:03;;;;;;;2.35;1.10;;;;;;;17.97;45.91;100782.81;5063519;28;20230;-52
2022/05/30 11:17:34;;;;;;;3.58;1.38;;;;;;;18.04;45.59;100775.50;5060979;28;20793;-51
2022/05/30 11:20:05;;;;;;;4.10;1.08;;;;;;;18.15;46.28;100781.38;5068755;28;20244;-51
2022/05/30 11:22:38;;;;;;;3.10;1.17;;;;;;;17.96;46.21;100769.56;5061258;28;20227;-51
2022/05/30 11:25:09;;;;;;;2.33;1.33;;;;;;;17.74;46.81;100774.63;5062301;28;21048;-52
2022/05/30 11:27:39;;;;;;;4.75;3.38;;;;;;;17.54;48.23;100770.75;5066715;28;20477;-53
2022/05/30 11:30:29;;;;;;;1.83;1.13;;;;;;;16.98;49.53;100770.56;5054728;28;20730;-52
2022/05/30 11:33:20;;;;;;;4.05;1.58;;;;;;;16.65;51.80;100778.47;5061954;28;20285;-53
2022/05/30 11:35:54;;;;;;;3.03;1.23;;;;;;;16.64;53.34;100779.38;5066826;28;20645;-52
2022/05/30 11:38:30;;;;;;;4.03;1.50;;;;;;;16.69;52.83;100792.50;5058021;28;20232;-52
2022/05/30 11:41:04;;;;;;;2.63;1.45;;;;;;;16.39;53.82;100789.72;5066056;28;20223;-51
2022/05/30 11:43:40;;;;;;;2.35;1.15;;;;;;;16.29;53.71;100787.34;5060910;28;20238;-52
2022/05/30 11:46:14;;;;;;;2.55;1.13;;;;;;;16.13;53.96;100792.97;5066993;28;20227;-51